Time;durP1;ratioP1;P1;durP2;ratioP2;P2;SDS_P1;SDS_P2;PMS_P1;PMS_P2;Temp;Humidity;BMP_temperature;BMP_pressure;BME280_temperature;BME280_humidity;BME280_pressure;Samples;Min_cycle;Max_cycle;Signal;HPM_P1;HPM_P2
2022/12/19 00:01:36;;;;;;;25.53;12.80;;;;;;;-2.77;86.39;101908.94;4991874;28;20039;-77
2022/12/19 00:04:04;;;;;;;25.50;13.27;;;;;;;-2.71;86.55;101911.03;4991686;28;20034;-77
2022/12/19 00:06:30;;;;;;;24.87;13.00;;;;;;;-2.67;85.80;101918.22;4975217;28;20038;-77
2022/12/19 00:09:00;;;;;;;23.90;13.10;;;;;;;-2.60;86.29;101904.03;4991810;28;20531;-77
2022/12/19 00:11:26;;;;;;;22.43;11.87;;;;;;;-2.55;86.04;101902.66;4975570;28;20084;-77
2022/12/19 00:13:52;;;;;;;26.73;12.43;;;;;;;-2.57;86.24;101905.13;4995619;28;20044;-77
2022/12/19 00:16:23;;;;;;;27.33;14.60;;;;;;;-2.60;85.35;101898.84;4995463;28;20035;-77
2022/12/19 00:18:50;;;;;;;24.27;13.27;;;;;;;-2.63;85.35;101899.53;4978055;28;20034;-77
2022/12/19 00:21:18;;;;;;;23.90;12.50;;;;;;;-2.66;84.37;101895.06;4998250;28;20041;-77
2022/12/19 00:23:44;;;;;;;24.70;12.67;;;;;;;-2.63;85.16;101909.00;4995075;28;20112;-77
2022/12/19 00:26:13;;;;;;;29.97;13.73;;;;;;;-2.58;84.16;101931.78;4995598;28;20038;-77
2022/12/19 00:28:39;;;;;;;24.67;13.27;;;;;;;-2.53;84.46;101927.81;4995540;28;20050;-77
2022/12/19 00:31:05;;;;;;;22.23;13.00;;;;;;;-2.50;83.67;101906.44;4995292;28;20573;-77
2022/12/19 00:33:30;;;;;;;26.43;13.33;;;;;;;-2.54;83.18;101888.94;4995361;28;20042;-77
2022/12/19 00:36:01;;;;;;;27.83;14.80;;;;;;;-2.57;82.54;101879.28;4995313;28;20062;-76
2022/12/19 00:38:27;;;;;;;27.57;13.90;;;;;;;-2.54;83.45;101864.00;4995286;28;20085;-76
2022/12/19 00:40:52;;;;;;;28.40;14.97;;;;;;;-2.51;83.81;101861.63;4977761;28;20049;-77
2022/12/19 00:43:18;;;;;;;27.37;14.57;;;;;;;-2.51;83.43;101860.72;4977748;28;20034;-77
2022/12/19 00:45:44;;;;;;;26.30;13.90;;;;;;;-2.50;83.62;101871.16;4980062;28;20058;-77
2022/12/19 00:48:10;;;;;;;28.20;14.30;;;;;;;-2.50;83.75;101870.25;4977547;28;20560;-77
2022/12/19 00:50:35;;;;;;;27.63;13.97;;;;;;;-2.49;83.26;101872.03;4995051;28;20126;-77
2022/12/19 00:53:00;;;;;;;26.23;14.07;;;;;;;-2.49;83.41;101882.38;4997152;28;20042;-78
2022/12/19 00:55:26;;;;;;;27.60;13.60;;;;;;;-2.49;83.10;101882.38;4994589;28;20045;-77
2022/12/19 00:57:51;;;;;;;27.43;14.43;;;;;;;-2.49;82.62;101892.72;4994953;28;20150;-76
2022/12/19 01:00:17;;;;;;;26.37;13.60;;;;;;;-2.42;82.72;101874.25;4985334;28;20042;-77
2022/12/19 01:02:43;;;;;;;28.00;13.40;;;;;;;-2.44;82.80;101881.00;4994810;28;20045;-77
2022/12/19 01:05:09;;;;;;;27.97;14.47;;;;;;;-2.45;82.40;101879.22;4994766;28;20041;-78
2022/12/19 01:07:35;;;;;;;26.37;13.40;;;;;;;-2.45;81.55;101858.53;4994519;28;20713;-77
2022/12/19 01:10:00;;;;;;;27.13;14.50;;;;;;;-2.48;81.84;101863.50;4977265;28;20042;-77
2022/12/19 01:12:45;;;;;;;27.03;14.23;;;;;;;-2.45;81.68;101866.31;4994549;28;20035;-77
2022/12/19 01:15:19;;;;;;;26.57;14.20;;;;;;;-2.43;81.91;101860.44;4992625;28;20054;-77
2022/12/19 01:17:45;;;;;;;29.67;15.27;;;;;;;-2.43;81.57;101868.19;4995096;28;20041;-77
2022/12/19 01:20:16;;;;;;;28.63;15.10;;;;;;;-2.44;81.14;101858.66;4976990;28;20030;-77
2022/12/19 01:22:42;;;;;;;24.83;14.00;;;;;;;-2.40;81.00;101857.16;4994322;28;20034;-77
2022/12/19 01:25:08;;;;;;;30.90;14.77;;;;;;;-2.41;79.86;101852.81;4994221;28;20038;-77
2022/12/19 01:27:33;;;;;;;28.70;13.90;;;;;;;-2.46;80.41;101849.00;4994167;28;20045;-78
2022/12/19 01:29:59;;;;;;;28.47;14.83;;;;;;;-2.48;79.45;101853.19;4995461;28;20088;-77
2022/12/19 01:32:24;;;;;;;29.07;15.80;;;;;;;-2.56;80.67;101841.41;4994393;28;20050;-76
2022/12/19 01:34:50;;;;;;;27.17;13.70;;;;;;;-2.55;80.65;101850.97;4976602;28;20042;-77
2022/12/19 01:37:17;;;;;;;28.60;14.57;;;;;;;-2.50;81.58;101850.47;4976570;28;20575;-77
2022/12/19 01:39:43;;;;;;;27.30;13.93;;;;;;;-2.48;80.91;101848.00;4976834;28;20401;-76
2022/12/19 01:42:18;;;;;;;29.17;14.50;;;;;;;-2.45;80.80;101848.19;4996696;28;20113;-76
2022/12/19 01:45:06;;;;;;;26.97;14.87;;;;;;;-2.39;80.01;101837.38;4976589;28;20038;-78
2022/12/19 01:47:34;;;;;;;28.07;14.40;;;;;;;-2.39;80.22;101838.25;4972071;28;20038;-76
2022/12/19 01:50:02;;;;;;;24.33;13.00;;;;;;;-2.38;80.50;101829.72;4994077;28;20038;-77
2022/12/19 01:52:28;;;;;;;30.37;14.80;;;;;;;-2.41;79.56;101829.53;4982051;28;20033;-77
2022/12/19 01:54:54;;;;;;;26.33;14.23;;;;;;;-2.48;80.74;101812.69;4993416;28;20053;-77
2022/12/19 01:57:20;;;;;;;28.13;14.23;;;;;;;-2.47;80.51;101813.59;4993656;28;20466;-76
2022/12/19 01:59:55;;;;;;;27.03;14.27;;;;;;;-2.48;81.21;101806.63;4994033;28;20034;-77
2022/12/19 02:02:27;;;;;;;25.87;14.97;;;;;;;-2.44;80.61;101799.19;4979894;28;20030;-77
2022/12/19 02:04:52;;;;;;;29.85;14.40;;;;;;;-2.44;79.91;101787.94;4971294;28;20035;-77
2022/12/19 02:07:20;;;;;;;26.33;13.97;;;;;;;-2.46;80.05;101797.31;4993422;28;20516;-77
2022/12/19 02:09:50;;;;;;;27.23;14.40;;;;;;;-2.51;79.73;101794.41;4976163;28;20038;-77
2022/12/19 02:12:16;;;;;;;34.90;15.30;;;;;;;-2.53;79.72;101787.34;4976144;28;20030;-77
2022/12/19 02:14:42;;;;;;;28.17;13.83;;;;;;;-2.57;79.14;101775.00;4977062;28;20460;-76
2022/12/19 02:17:50;;;;;;;31.60;14.87;;;;;;;-2.56;79.82;101780.28;4975128;28;20037;-77
2022/12/19 02:20:56;;;;;;;29.33;14.67;;;;;;;-2.56;79.82;101774.22;4988377;28;20046;-77
2022/12/19 02:23:57;;;;;;;24.97;13.27;;;;;;;-2.62;79.27;101766.03;4972694;28;20113;-78
2022/12/19 02:26:50;;;;;;;27.70;13.90;;;;;;;-2.67;79.01;101773.50;4959250;28;20030;-77
2022/12/19 02:29:34;;;;;;;27.53;13.87;;;;;;;-2.71;79.97;101769.78;4972353;28;20080;-76
2022/12/19 02:32:22;;;;;;;27.67;14.13;;;;;;;-2.72;79.04;101768.03;4975749;28;20027;-77
2022/12/19 02:35:08;;;;;;;28.83;14.97;;;;;;;-2.68;79.31;101767.41;4982763;28;20038;-77
2022/12/19 02:38:04;;;;;;;33.03;14.97;;;;;;;-2.75;79.05;101765.22;4974305;28;20038;-76
2022/12/19 02:40:34;;;;;;;28.47;14.13;;;;;;;-2.77;78.77;101763.34;4991603;28;20091;-76
2022/12/19 02:43:03;;;;;;;27.87;13.97;;;;;;;-2.79;79.36;101768.38;4984437;28;20038;-77
2022/12/19 02:45:34;;;;;;;1999.90;999.90;;;;;;;-2.83;79.32;101773.25;4975291;28;20497;-76
2022/12/19 02:48:01;;;;;;;60.03;56.13;;;;;;;-2.81;78.61;101795.81;4964158;28;20133;-77
2022/12/19 02:50:44;;;;;;;0.00;0.00;;;;;;;-2.77;77.70;101795.25;4994775;28;20034;-76
2022/12/19 02:53:12;;;;;;;60.50;53.20;;;;;;;-2.74;78.34;101791.97;4975379;28;20066;-76
2022/12/19 02:55:59;;;;;;;7.30;6.60;;;;;;;-2.72;78.46;101795.56;4988890;28;20038;-77
2022/12/19 02:58:54;;;;;;;10.57;6.90;;;;;;;-2.73;77.97;101804.97;4971587;28;20037;-76
2022/12/19 03:01:35;;;;;;;10.80;7.13;;;;;;;-2.75;77.92;101810.81;4961099;28;20092;-77
2022/12/19 03:04:15;;;;;;;11.03;6.43;;;;;;;-2.67;78.15;101818.31;4979343;28;20034;-76
2022/12/19 03:06:51;;;;;;;19.73;8.30;;;;;;;-2.66;77.28;101811.47;4974965;28;20034;-76
2022/12/19 03:09:37;;;;;;;19.23;9.67;;;;;;;-2.61;77.16;101799.75;4969536;28;20106;-77
2022/12/19 03:12:08;;;;;;;18.13;9.17;;;;;;;-2.58;76.99;101797.38;4994157;28;20031;-77
2022/12/19 03:14:35;;;;;;;16.87;9.20;;;;;;;-2.65;76.63;101803.81;4983627;28;20037;-76
2022/12/19 03:17:06;;;;;;;16.80;9.33;;;;;;;-2.65;76.77;101811.59;4974738;28;20034;-77
2022/12/19 03:19:34;;;;;;;16.23;9.23;;;;;;;-2.59;77.08;101802.41;4982945;28;20547;-76
2022/12/19 03:22:00;;;;;;;16.97;9.37;;;;;;;-2.61;76.94;101814.38;4994914;28;20033;-76
2022/12/19 03:24:26;;;;;;;18.67;10.60;;;;;;;-2.56;77.86;101807.81;4958480;28;20038;-76
2022/12/19 03:27:25;;;;;;;19.93;9.20;;;;;;;-2.55;77.90;101801.84;4992010;28;20049;-77
2022/12/19 03:29:59;;;;;;;16.33;8.53;;;;;;;-2.55;78.01;101794.97;4980892;28;20137;-78
2022/12/19 03:32:27;;;;;;;17.17;8.77;;;;;;;-2.54;77.77;101795.88;4991200;28;20082;-77
2022/12/19 03:35:12;;;;;;;16.50;8.53;;;;;;;-2.45;77.70;101799.09;4974668;28;20045;-76
2022/12/19 03:37:40;;;;;;;16.97;8.43;;;;;;;-2.48;78.03;101801.47;4989688;28;20041;-76
2022/12/19 03:40:13;;;;;;;16.27;9.17;;;;;;;-2.52;78.09;101795.19;4992077;28;20031;-77
2022/12/19 03:45:38;;;;;;;17.33;9.50;;;;;;;-2.51;77.98;101780.59;4991678;28;20049;-77
2022/12/19 03:48:12;;;;;;;16.13;7.67;;;;;;;-2.48;78.14;101775.63;4992452;28;20409;-77
2022/12/19 03:50:50;;;;;;;15.77;8.30;;;;;;;-2.47;77.75;101774.81;4988422;28;20497;-77
2022/12/19 03:53:51;;;;;;;17.43;7.77;;;;;;;-2.45;78.29;101775.81;4991788;28;20042;-77
2022/12/19 03:56:37;;;;;;;15.97;7.90;;;;;;;-2.46;78.42;101774.03;4933668;28;20050;-76
2022/12/19 03:59:08;;;;;;;18.47;9.37;;;;;;;-2.42;78.26;101776.00;4994808;28;20070;-77
2022/12/19 04:01:35;;;;;;;16.45;8.10;;;;;;;-2.39;78.20;101770.16;4991666;28;20042;-77
2022/12/19 04:04:02;;;;;;;13.97;8.40;;;;;;;-2.39;78.40;101771.03;4991950;28;20116;-76
2022/12/19 04:06:30;;;;;;;16.00;9.00;;;;;;;-2.36;78.39;101750.53;4974157;28;20065;-76
2022/12/19 04:08:57;;;;;;;16.77;8.37;;;;;;;-2.37;78.86;101753.94;4991717;28;20046;-77
2022/12/19 04:11:26;;;;;;;14.40;8.03;;;;;;;-2.37;78.67;101759.09;4970478;28;20038;-76
2022/12/19 04:13:56;;;;;;;15.60;8.60;;;;;;;-2.33;78.59;101755.03;4991506;28;20049;-76
2022/12/19 04:16:26;;;;;;;15.93;7.77;;;;;;;-2.31;78.13;101749.16;4976323;28;20049;-77
2022/12/19 04:18:58;;;;;;;18.03;9.60;;;;;;;-2.29;78.92;101739.81;4988031;28;20030;-77
2022/12/19 04:21:33;;;;;;;17.87;10.07;;;;;;;-2.27;79.03;101745.09;4992042;28;20117;-78
2022/12/19 04:24:08;;;;;;;14.17;7.70;;;;;;;-2.31;78.63;101743.97;4991385;28;20061;-78
2022/12/19 04:26:37;;;;;;;16.60;9.13;;;;;;;-2.33;78.10;101749.84;4989156;28;20046;-79
2022/12/19 04:29:05;;;;;;;16.87;8.67;;;;;;;-2.31;78.12;101749.16;4991567;28;20030;-78
2022/12/19 04:31:30;;;;;;;16.23;8.40;;;;;;;-2.27;78.42;101747.69;4991013;28;20035;-78
2022/12/19 04:33:56;;;;;;;15.80;8.07;;;;;;;-2.24;79.10;101735.84;4982554;28;20049;-77
2022/12/19 04:36:21;;;;;;;24.77;12.10;;;;;;;-2.19;79.89;101746.50;4991187;28;20113;-78
2022/12/19 04:38:47;;;;;;;16.13;8.90;;;;;;;-2.17;78.84;101742.31;4992436;28;20072;-78
2022/12/19 04:41:12;;;;;;;15.50;8.43;;;;;;;-2.19;78.92;101749.06;4991532;28;20057;-77
2022/12/19 04:43:38;;;;;;;15.07;8.13;;;;;;;-2.17;78.33;101751.75;4991525;28;20034;-77
2022/12/19 04:46:03;;;;;;;16.23;8.50;;;;;;;-2.17;77.86;101752.66;4991396;28;20114;-78
2022/12/19 04:48:28;;;;;;;16.00;8.37;;;;;;;-2.12;79.32;101745.19;4994593;28;20489;-78
2022/12/19 04:50:54;;;;;;;17.27;8.03;;;;;;;-2.08;78.90;101742.88;4991301;28;20042;-77
2022/12/19 04:53:20;;;;;;;15.77;8.17;;;;;;;-2.06;78.81;101738.72;4991427;28;20034;-78
2022/12/19 04:55:45;;;;;;;16.60;9.90;;;;;;;-2.00;78.81;101736.50;4991111;28;20382;-78
2022/12/19 04:58:11;;;;;;;14.97;7.37;;;;;;;-1.99;78.97;101752.94;4993758;28;20799;-78
2022/12/19 05:00:37;;;;;;;15.13;7.83;;;;;;;-1.96;79.02;101752.25;4995423;28;20077;-78
2022/12/19 05:03:02;;;;;;;14.10;7.07;;;;;;;-1.97;79.56;101743.56;4994869;28;20045;-78
2022/12/19 05:05:27;;;;;;;14.20;7.50;;;;;;;-2.00;78.85;101752.03;4994459;28;20038;-77
2022/12/19 05:07:56;;;;;;;14.97;8.20;;;;;;;-2.02;79.38;101734.63;4994675;28;20077;-78
2022/12/19 05:10:22;;;;;;;14.33;7.20;;;;;;;-1.97;79.68;101738.41;4996069;28;20045;-77
2022/12/19 05:12:47;;;;;;;14.13;7.13;;;;;;;-1.95;78.80;101734.22;4995750;28;20042;-77
2022/12/19 05:15:12;;;;;;;13.70;7.20;;;;;;;-1.95;79.63;101728.16;4994487;28;20042;-78
2022/12/19 05:17:38;;;;;;;13.83;8.67;;;;;;;-1.99;78.99;101724.50;4994401;28;20061;-78
2022/12/19 05:20:04;;;;;;;16.10;9.20;;;;;;;-1.99;79.50;101722.81;4994522;28;20428;-78
2022/12/19 05:22:29;;;;;;;15.00;8.20;;;;;;;-1.90;79.54;101719.88;4996311;28;20029;-78
2022/12/19 05:24:54;;;;;;;15.87;8.67;;;;;;;-1.87;79.56;101717.47;4994274;28;20405;-77
2022/12/19 05:27:20;;;;;;;20.37;10.13;;;;;;;-1.83;80.24;101723.78;4994311;28;20508;-77
2022/12/19 05:29:45;;;;;;;26.37;13.53;;;;;;;-1.77;80.67;101734.50;4996422;28;20038;-78
2022/12/19 05:32:10;;;;;;;24.53;11.30;;;;;;;-1.68;80.94;101735.06;4994242;28;20034;-77
2022/12/19 05:34:36;;;;;;;24.33;11.20;;;;;;;-1.62;80.34;101724.22;4994172;28;20038;-77
2022/12/19 05:37:02;;;;;;;18.90;10.13;;;;;;;-1.59;80.34;101724.41;4993955;28;20056;-78
2022/12/19 05:39:28;;;;;;;17.97;10.10;;;;;;;-1.61;79.38;101728.59;4976788;28;20038;-78
2022/12/19 05:41:53;;;;;;;9.43;5.93;;;;;;;-1.57;80.30;101727.97;4994204;28;20520;-77
2022/12/19 05:44:19;;;;;;;9.80;5.90;;;;;;;-1.51;79.92;101725.75;4997454;28;20038;-78
2022/12/19 05:46:44;;;;;;;11.53;7.50;;;;;;;-1.46;79.41;101732.13;4976349;28;20046;-77
2022/12/19 05:49:09;;;;;;;10.27;6.60;;;;;;;-1.37;79.08;101737.84;4969161;28;20174;-77
2022/12/19 05:51:34;;;;;;;11.33;6.93;;;;;;;-1.28;79.18;101726.25;4993879;28;20066;-78
2022/12/19 05:54:00;;;;;;;10.17;6.40;;;;;;;-1.27;79.88;101716.00;4994289;28;20042;-78
2022/12/19 05:56:25;;;;;;;10.23;6.33;;;;;;;-1.24;79.92;101710.13;4993578;28;20034;-78
2022/12/19 05:58:50;;;;;;;12.37;7.97;;;;;;;-1.22;79.91;101729.25;4993970;28;20046;-78
2022/12/19 06:01:22;;;;;;;10.80;6.60;;;;;;;-1.08;79.79;101728.34;4993760;28;20026;-78
2022/12/19 06:03:47;;;;;;;11.97;7.43;;;;;;;-1.03;79.82;101713.97;4990311;28;20038;-77
2022/12/19 06:06:15;;;;;;;16.63;11.60;;;;;;;-0.97;79.82;101713.44;4993346;28;20540;-78
2022/12/19 06:08:41;;;;;;;11.43;7.27;;;;;;;-0.92;79.65;101718.13;4977218;28;20077;-77
2022/12/19 06:11:08;;;;;;;10.13;6.67;;;;;;;-0.98;78.94;101722.94;4993709;28;20124;-78
2022/12/19 06:13:34;;;;;;;12.43;7.50;;;;;;;-0.94;79.62;101714.53;4993819;28;20030;-77
2022/12/19 06:16:01;;;;;;;10.80;7.10;;;;;;;-0.84;79.24;101704.69;4993310;28;20041;-77
2022/12/19 06:18:27;;;;;;;11.10;6.93;;;;;;;-0.88;79.34;101711.41;4993368;28;20053;-78
2022/12/19 06:21:00;;;;;;;19.70;11.17;;;;;;;-0.94;80.00;101719.72;4993518;28;20442;-78
2022/12/19 06:23:29;;;;;;;15.73;9.80;;;;;;;-0.85;80.93;101718.47;4993308;28;20041;-77
2022/12/19 06:25:56;;;;;;;15.80;9.80;;;;;;;-0.77;80.45;101710.34;4993552;28;20103;-78
2022/12/19 06:28:22;;;;;;;18.00;10.23;;;;;;;-0.70;79.74;101703.81;4976834;28;20097;-77
2022/12/19 06:30:47;;;;;;;14.40;8.77;;;;;;;-0.67;79.57;101706.59;4993220;28;20123;-77
2022/12/19 06:33:12;;;;;;;15.03;8.43;;;;;;;-0.62;79.45;101689.59;4993040;28;20042;-78
2022/12/19 06:35:38;;;;;;;12.10;7.37;;;;;;;-0.61;79.50;101681.00;4996139;28;20074;-77
2022/12/19 06:38:03;;;;;;;11.90;7.50;;;;;;;-0.65;78.93;101678.16;4993113;28;20049;-78
2022/12/19 06:43:14;;;;;;;13.20;8.47;;;;;;;-0.62;79.03;101684.41;4962174;28;20528;-77
2022/12/19 06:45:39;;;;;;;13.13;8.70;;;;;;;-0.62;78.67;101684.41;4992549;28;20050;-78
2022/12/19 06:48:05;;;;;;;12.70;7.90;;;;;;;-0.54;78.82;101685.75;4995552;28;20042;-77
2022/12/19 06:50:30;;;;;;;13.93;8.73;;;;;;;-0.53;78.87;101684.03;4992961;28;20030;-78
2022/12/19 06:52:55;;;;;;;12.33;8.10;;;;;;;-0.51;78.33;101698.00;4992687;28;20386;-78
2022/12/19 06:55:20;;;;;;;13.03;8.33;;;;;;;-0.51;78.74;101688.50;4994568;28;20646;-78
2022/12/19 06:57:46;;;;;;;12.67;7.77;;;;;;;-0.42;78.59;101689.81;4992660;28;20030;-78
2022/12/19 07:00:13;;;;;;;12.23;7.63;;;;;;;-0.35;78.76;101682.47;4992507;28;20040;-78
2022/12/19 07:02:42;;;;;;;13.83;8.43;;;;;;;-0.22;78.74;101684.97;4992558;28;20042;-77
2022/12/19 07:05:09;;;;;;;14.13;8.67;;;;;;;-0.17;78.22;101692.13;4992515;28;20504;-78
2022/12/19 07:07:34;;;;;;;14.20;9.23;;;;;;;-0.22;78.71;101692.75;4992894;28;20030;-78
2022/12/19 07:10:00;;;;;;;13.43;8.93;;;;;;;-0.18;78.66;101693.81;4992430;28;20378;-78
2022/12/19 07:12:25;;;;;;;15.73;10.23;;;;;;;-0.16;79.44;101699.09;4992352;28;20092;-77
2022/12/19 07:14:50;;;;;;;16.70;10.40;;;;;;;-0.12;78.81;101693.28;4994246;28;20034;-78
2022/12/19 07:17:17;;;;;;;14.70;9.47;;;;;;;-0.14;78.63;101687.09;4992223;28;20042;-78
2022/12/19 07:19:43;;;;;;;13.93;7.63;;;;;;;-0.15;79.24;101674.94;4983424;28;20049;-77
2022/12/19 07:22:09;;;;;;;15.73;9.97;;;;;;;-0.12;78.80;101668.19;4992310;28;20034;-78
2022/12/19 07:24:35;;;;;;;14.47;8.93;;;;;;;-0.05;79.33;101666.84;4991926;28;20409;-78
2022/12/19 07:27:01;;;;;;;13.83;9.40;;;;;;;-0.15;78.26;101662.84;4992557;28;20034;-78
2022/12/19 07:29:26;;;;;;;14.03;8.43;;;;;;;-0.20;78.66;101672.09;4989389;28;20053;-78
2022/12/19 07:31:52;;;;;;;17.77;9.27;;;;;;;-0.20;78.90;101674.69;4992180;28;20047;-78
2022/12/19 07:34:17;;;;;;;16.20;9.77;;;;;;;-0.23;79.19;101682.28;4992132;28;20453;-78
2022/12/19 07:36:43;;;;;;;17.13;10.77;;;;;;;-0.27;78.89;101676.03;4994916;28;20404;-78
2022/12/19 07:39:08;;;;;;;13.13;8.70;;;;;;;-0.31;79.10;101689.66;4992332;28;20042;-78
2022/12/19 07:41:37;;;;;;;15.13;9.60;;;;;;;-0.34;79.56;101693.75;4991744;28;20085;-78
2022/12/19 07:44:03;;;;;;;14.20;9.17;;;;;;;-0.38;79.43;101694.41;4974623;28;20030;-78
2022/12/19 07:46:31;;;;;;;12.60;8.27;;;;;;;-0.39;79.41;101684.81;4991746;28;20034;-78
2022/12/19 07:48:56;;;;;;;15.80;9.60;;;;;;;-0.39;79.10;101674.44;4982785;28;20100;-78
2022/12/19 07:51:22;;;;;;;18.40;11.87;;;;;;;-0.41;79.18;101682.16;4991767;28;20038;-78
2022/12/19 07:53:47;;;;;;;17.37;11.17;;;;;;;-0.45;79.27;101686.28;4991882;28;20061;-78
2022/12/19 07:56:13;;;;;;;15.47;9.93;;;;;;;-0.42;79.91;101695.91;4974252;28;20414;-78
2022/12/19 07:58:39;;;;;;;17.57;9.77;;;;;;;-0.40;79.32;101696.91;4983219;28;20080;-77
2022/12/19 08:01:05;;;;;;;16.37;10.80;;;;;;;-0.37;79.88;101681.50;4992060;28;20065;-77
2022/12/19 08:03:30;;;;;;;15.73;9.47;;;;;;;-0.28;79.75;101684.63;4991642;28;20039;-77
2022/12/19 08:06:00;;;;;;;15.60;10.17;;;;;;;-0.25;77.98;101684.78;4975541;28;20084;-77
2022/12/19 08:08:27;;;;;;;16.17;9.97;;;;;;;-0.19;78.59;101689.41;4988337;28;20496;-77
2022/12/19 08:10:52;;;;;;;15.23;9.83;;;;;;;-0.12;78.62;101688.97;4992904;28;20042;-77
2022/12/19 08:13:17;;;;;;;16.63;10.07;;;;;;;-0.10;78.19;101683.88;4991658;28;20038;-78
2022/12/19 08:15:43;;;;;;;15.50;9.70;;;;;;;-0.02;78.78;101675.69;4991478;28;20477;-78
2022/12/19 08:18:08;;;;;;;16.80;10.77;;;;;;;0.00;78.82;101680.97;4990402;28;20034;-77
2022/12/19 08:20:33;;;;;;;16.57;10.43;;;;;;;0.07;78.43;101677.88;4991577;28;20091;-77
2022/12/19 08:22:59;;;;;;;15.20;9.43;;;;;;;0.11;77.95;101689.34;4991761;28;20042;-78
2022/12/19 08:25:24;;;;;;;14.70;9.73;;;;;;;0.14;78.05;101690.41;4991182;28;20038;-78
2022/12/19 08:27:50;;;;;;;15.00;9.83;;;;;;;0.14;76.98;101681.72;4991417;28;20041;-78
2022/12/19 08:30:15;;;;;;;13.30;9.17;;;;;;;0.29;78.31;101668.66;4991898;28;20039;-78
2022/12/19 08:32:40;;;;;;;15.37;9.67;;;;;;;0.38;77.07;101664.84;4993213;28;20038;-78
2022/12/19 08:35:06;;;;;;;14.40;9.23;;;;;;;0.47;76.90;101656.66;4995381;28;20363;-78
2022/12/19 08:37:31;;;;;;;12.55;8.35;;;;;;;0.55;76.09;101646.66;4977131;28;20034;-77
2022/12/19 08:39:57;;;;;;;15.45;10.45;;;;;;;0.65;76.13;101646.31;4996623;28;20037;-78
2022/12/19 08:42:22;;;;;;;12.85;8.55;;;;;;;0.73;76.24;101641.53;4995194;28;20053;-78
2022/12/19 08:44:47;;;;;;;14.00;8.53;;;;;;;0.71;76.31;101645.75;4994936;28;20081;-78
2022/12/19 08:47:13;;;;;;;13.15;9.02;;;;;;;0.85;76.89;101637.84;4995539;28;20039;-78
2022/12/19 08:49:39;;;;;;;13.45;9.35;;;;;;;0.88;75.71;101643.19;4979027;28;20417;-78
2022/12/19 08:52:04;;;;;;;15.00;9.60;;;;;;;0.86;76.08;101639.66;4994953;28;20030;-78
2022/12/19 08:54:29;;;;;;;16.73;11.23;;;;;;;0.84;75.41;101641.28;4994764;28;20042;-78
2022/12/19 08:56:55;;;;;;;14.32;9.00;;;;;;;0.81;74.76;101638.53;4994918;28;20121;-78
2022/12/19 08:59:20;;;;;;;14.10;9.23;;;;;;;0.99;75.64;101637.66;4995223;28;20412;-78
2022/12/19 09:01:45;;;;;;;13.80;9.30;;;;;;;1.00;74.54;101635.16;4997620;28;20477;-78
2022/12/19 09:04:10;;;;;;;14.52;9.68;;;;;;;1.00;74.03;101631.66;5009411;23;20050;-76
2022/12/19 09:06:36;;;;;;;13.93;9.15;;;;;;;1.04;75.62;101629.25;4983548;28;20125;-76
2022/12/19 09:09:03;;;;;;;15.25;8.93;;;;;;;1.16;75.35;101636.81;4986909;28;20045;-76
2022/12/19 09:11:29;;;;;;;12.68;8.40;;;;;;;1.31;75.17;101639.28;4987947;28;20053;-75
2022/12/19 09:13:56;;;;;;;18.98;11.77;;;;;;;1.42;75.08;101630.28;4980897;28;20485;-76
2022/12/19 09:16:23;;;;;;;18.45;11.25;;;;;;;1.52;75.50;101616.00;4965467;28;20467;-76
2022/12/19 09:18:51;;;;;;;14.35;9.55;;;;;;;1.60;74.47;101622.47;4964325;28;20066;-75
2022/12/19 09:21:18;;;;;;;12.48;8.55;;;;;;;1.56;72.82;101620.53;4966542;28;20085;-76
2022/12/19 09:23:55;;;;;;;12.90;9.02;;;;;;;1.61;74.01;101612.94;4965525;28;20130;-76
2022/12/19 09:26:23;;;;;;;13.75;9.00;;;;;;;1.69;73.92;101607.28;4963696;28;20517;-76
2022/12/19 09:28:49;;;;;;;13.00;8.73;;;;;;;1.76;73.07;101608.47;4966831;28;20039;-76
2022/12/19 09:31:20;;;;;;;12.50;9.15;;;;;;;1.85;73.30;101614.09;4963956;28;20110;-76
2022/12/19 09:33:46;;;;;;;12.23;8.48;;;;;;;1.95;73.33;101605.88;4950487;28;20037;-76
2022/12/19 09:36:14;;;;;;;12.27;8.23;;;;;;;2.03;73.16;101592.31;4980764;28;20146;-76
2022/12/19 09:38:39;;;;;;;11.82;8.38;;;;;;;2.12;72.74;101592.72;4963421;28;20494;-76
2022/12/19 09:41:32;;;;;;;11.93;7.75;;;;;;;2.17;73.37;101597.34;4971080;28;20182;-76
2022/12/19 09:44:12;;;;;;;19.50;12.35;;;;;;;2.21;73.31;101587.94;4968377;28;20100;-75
2022/12/19 09:46:48;;;;;;;23.58;13.88;;;;;;;2.25;74.23;101586.34;4977982;28;20126;-76
2022/12/19 09:49:38;;;;;;;23.30;15.02;;;;;;;2.40;74.15;101581.81;4964833;28;20453;-76
2022/12/19 09:52:16;;;;;;;21.92;14.20;;;;;;;2.49;73.82;101584.84;4968111;28;20462;-76
2022/12/19 09:54:50;;;;;;;21.35;13.35;;;;;;;2.62;74.05;101576.72;4967873;28;20094;-76
2022/12/19 09:57:24;;;;;;;20.23;13.35;;;;;;;2.67;73.55;101573.41;4964384;28;20034;-76
2022/12/19 09:59:57;;;;;;;17.52;12.00;;;;;;;2.69;73.09;101576.97;4966342;28;20042;-76
2022/12/19 10:02:25;;;;;;;;;;;;;;;2.71;72.73;101563.19;4971004;28;20536;-76
2022/12/19 10:05:01;;;;;;;16.17;10.15;;;;;;;2.82;72.95;101561.91;4972510;28;19915;-76
2022/12/19 10:07:26;;;;;;;12.73;9.30;;;;;;;2.80;71.59;101560.06;4963131;28;20031;-76
2022/12/19 10:09:53;;;;;;;12.10;9.15;;;;;;;2.92;72.27;101560.59;4965149;28;20050;-76
2022/12/19 10:12:32;;;;;;;16.73;9.55;;;;;;;2.99;71.05;101566.97;4964470;28;20043;-76
2022/12/19 10:15:06;;;;;;;13.55;9.82;;;;;;;3.01;70.47;101565.28;4966952;28;20066;-76
2022/12/19 10:18:14;;;;;;;12.75;8.85;;;;;;;3.04;71.08;101560.22;4962266;28;20051;-76
2022/12/19 10:20:51;;;;;;;12.80;8.75;;;;;;;3.11;71.24;101557.00;4951851;28;20564;-76
2022/12/19 10:23:39;;;;;;;13.45;9.25;;;;;;;3.18;70.65;101545.13;4962728;28;20102;-76
2022/12/19 10:26:26;;;;;;;13.00;9.60;;;;;;;3.22;71.10;101544.38;4968632;28;20110;-76
2022/12/19 10:29:05;;;;;;;14.35;9.65;;;;;;;3.08;71.04;101538.63;4983067;28;20494;-76
2022/12/19 10:31:41;;;;;;;14.68;10.35;;;;;;;3.11;71.06;101536.13;4963493;28;20035;-76
2022/12/19 10:34:23;;;;;;;14.18;9.95;;;;;;;3.14;71.68;101536.25;4962501;28;20035;-76
2022/12/19 10:36:55;;;;;;;12.98;8.77;;;;;;;3.24;71.45;101533.19;4965349;28;20494;-76
2022/12/19 10:39:32;;;;;;;13.10;9.80;;;;;;;3.19;70.76;101534.72;4965446;28;20041;-76
2022/12/19 10:42:10;;;;;;;14.25;9.75;;;;;;;3.20;70.93;101530.44;4965256;28;20039;-76
2022/12/19 10:44:38;;;;;;;11.95;8.57;;;;;;;3.22;71.28;101529.66;4962289;28;20513;-76
2022/12/19 10:47:04;;;;;;;13.23;8.85;;;;;;;3.23;72.18;101521.00;4970756;28;20046;-76
2022/12/19 10:49:29;;;;;;;14.40;9.57;;;;;;;3.27;71.99;101516.75;4963890;28;20086;-76
2022/12/19 10:51:54;;;;;;;12.55;9.18;;;;;;;3.31;72.18;101518.69;4945283;28;20047;-76
2022/12/19 10:54:22;;;;;;;13.63;9.05;;;;;;;3.42;72.52;101514.75;4969319;28;20045;-76
2022/12/19 10:56:47;;;;;;;13.65;8.95;;;;;;;3.40;72.27;101507.69;4963419;28;20035;-76
2022/12/19 10:59:18;;;;;;;14.05;9.80;;;;;;;3.45;71.79;101501.81;4964505;28;20446;-76
2022/12/19 11:01:43;;;;;;;14.90;9.55;;;;;;;3.55;71.94;101499.56;4963745;28;20042;-76
2022/12/19 11:04:32;;;;;;;14.10;9.10;;;;;;;3.66;72.25;101500.84;4963112;28;20039;-76
2022/12/19 11:07:04;;;;;;;14.32;9.82;;;;;;;3.79;71.99;101492.66;4964993;28;20043;-76
2022/12/19 11:09:45;;;;;;;13.20;9.15;;;;;;;3.79;71.66;101497.00;4961665;28;20054;-76
2022/12/19 11:12:16;;;;;;;13.20;9.40;;;;;;;3.78;72.23;101495.22;4962145;28;20039;-76
2022/12/19 11:14:49;;;;;;;14.32;10.20;;;;;;;3.70;72.30;101501.03;4963160;28;20186;-76
2022/12/19 11:17:32;;;;;;;14.77;10.18;;;;;;;3.76;72.38;101492.53;4966630;28;20713;-76
2022/12/19 11:19:58;;;;;;;13.10;9.52;;;;;;;3.77;72.32;101491.69;4962708;28;20043;-75
2022/12/19 11:22:30;;;;;;;12.15;8.27;;;;;;;3.68;72.74;101478.31;4962975;28;20089;-76
2022/12/19 11:24:57;;;;;;;12.57;9.30;;;;;;;3.59;72.29;101485.78;4964565;28;20074;-76
2022/12/19 11:27:41;;;;;;;13.50;9.38;;;;;;;3.57;73.26;101482.25;4966506;28;20039;-76
2022/12/19 11:30:19;;;;;;;13.25;9.43;;;;;;;3.56;73.15;101483.94;4967119;28;20402;-76
2022/12/19 11:32:46;;;;;;;12.52;8.95;;;;;;;3.59;73.50;101463.22;4962778;28;20128;-76
2022/12/19 11:35:21;;;;;;;12.52;9.05;;;;;;;3.60;73.51;101454.53;4963849;28;20047;-75